Naniwa Maru No.21 — JG5648 — position and weather

sailwx.info

Track history (hours):
 
Tides and Currents Weather Stations Pressure Air Temp Water Temp Dewpoint Dewpoint Depression Visibility Wind Speed Wind Dir Waves Ship Positions

Naniwa Maru No.21

Last reported at 2014-Oct-21 15:18 UTC. Time now 2014-Oct-22 23:17 UTC.
Position N 33°57' E 132°43'.

Length 71 m; draft 4 m.

Type: Tanker. MMSI: 431301595.

Date/timePositionNaut miles runAvg speedWind from/ knotsBaromVisibWave heightAir tempDewpointWater temp
2014-Oct-21 15:18N 33°57' E 132°43'11711.9
2014-Oct-21 05:29N 33°49' E 130°23'1111.5
2014-Oct-21 04:33N 33°39' E 130°18'4 4.3
2014-Oct-21 03:32N 33°36' E 130°23'0 0.0
2014-Oct-21 02:32N 33°36' E 130°23'0 0.0
2014-Oct-21 01:32N 33°36' E 130°23'0 0.0
2014-Oct-21 00:32N 33°36' E 130°23'1 0.6
2014-Oct-20 23:33N 33°37' E 130°23'2 1.6
2014-Oct-20 22:33N 33°37' E 130°21'0 0.0
2014-Oct-20 21:28N 33°37' E 130°21'0 0.0
2014-Oct-20 20:22N 33°37' E 130°21'0 0.0
2014-Oct-20 19:33N 33°37' E 130°21'0 0.0
2014-Oct-20 18:33N 33°37' E 130°21'0 0.0
2014-Oct-20 17:30N 33°37' E 130°21'0 0.0
2014-Oct-20 16:33N 33°37' E 130°21'6 6.4
2014-Oct-20 15:33N 33°42' E 130°16'5 0.1
2014-Oct-19 03:24N 33°46' E 130°20'910.2
2014-Oct-19 02:33N 33°37' E 130°21'2 1.6
2014-Oct-19 01:33N 33°36' E 130°23'0 0.0
2014-Oct-19 00:32N 33°36' E 130°23'0 0.0
2014-Oct-18 23:32N 33°36' E 130°23'0 0.2
2014-Oct-18 22:33N 33°36' E 130°23'2 0.8
2014-Oct-18 20:28N 33°37' E 130°21'0 0.1
2014-Oct-18 19:31N 33°37' E 130°21'0 0.0
2014-Oct-18 18:25N 33°37' E 130°21'0 0.0
2014-Oct-18 17:25N 33°37' E 130°21'0 0.0
2014-Oct-18 16:31N 33°37' E 130°21'0 0.0
2014-Oct-18 15:29N 33°37' E 130°21'0 0.0
2014-Oct-18 14:28N 33°37' E 130°21'0 0.0
2014-Oct-18 13:31N 33°37' E 130°21'0 0.0
2014-Oct-18 12:31N 33°37' E 130°21'0 0.0
2014-Oct-18 11:25N 33°37' E 130°21'0 0.0
2014-Oct-18 10:31N 33°37' E 130°21'0 0.0
2014-Oct-18 09:31N 33°37' E 130°21'0 0.0
2014-Oct-18 08:28N 33°37' E 130°21'0 0.1
2014-Oct-18 07:31N 33°37' E 130°21'8 8.4
2014-Oct-18 06:33N 33°45' E 130°19'23411.7
2014-Oct-17 10:33N 34°36' E 134°54'9 9.5
2014-Oct-17 09:33N 34°32' E 135°05'1413.6
2014-Oct-17 08:33N 34°19' E 134°60'1312.8
2014-Oct-17 07:33N 34°08' E 135°07'0 0.1
2014-Oct-17 03:26N 34°07' E 135°07'1 1.2
2014-Oct-17 02:33N 34°07' E 135°06'  
2014-Oct-14 06:12N 34°07' E 135°04'3 0.7
2014-Oct-14 02:07N 34°07' E 135°08'1 1.0
2014-Oct-14 01:34N 34°07' E 135°08'4 1.8
2014-Oct-13 23:33N 34°10' E 135°05'1913.1
2014-Oct-13 22:05N 34°29' E 135°02'611.9
2014-Oct-13 21:33N 34°35' E 135°03'234 5.7
2014-Oct-12 04:20N 33°52' E 130°26'1013.4
2014-Oct-12 03:33N 33°44' E 130°18'8 8.4
2014-Oct-12 02:33N 33°36' E 130°23'0 0.0
2014-Oct-12 01:31N 33°36' E 130°23'0 0.0
2014-Oct-12 00:31N 33°36' E 130°23'0 0.0
2014-Oct-11 23:34N 33°36' E 130°23'0 0.3
2014-Oct-11 22:33N 33°36' E 130°23'2 1.5
2014-Oct-11 21:32N 33°37' E 130°21'0 0.0
2014-Oct-11 20:34N 33°37' E 130°21'0 0.0
2014-Oct-11 19:30N 33°37' E 130°21'0 0.0
2014-Oct-11 18:31N 33°37' E 130°21'0 0.0
2014-Oct-11 17:33N 33°37' E 130°21'0 0.0
2014-Oct-11 16:33N 33°37' E 130°21'0 0.0
2014-Oct-11 15:33N 33°37' E 130°21'  
Track history (hours):
 
Tides and Currents Weather Stations Pressure Air Temp Water Temp Dewpoint Dewpoint Depression Visibility Wind Speed Wind Dir Waves Ship Positions

Naniwa Maru No.21

Last reported at 2014-Oct-21 15:18 UTC. Time now 2014-Oct-22 23:17 UTC.
Position N 33°57' E 132°43'.

Length 71 m; draft 4 m.

Type: Tanker. MMSI: 431301595.

Date/timePositionNaut miles runAvg speedWind from/ knotsBaromVisibWave heightAir tempDewpointWater temp
2014-Oct-21 15:18N 33°57' E 132°43'11711.9
2014-Oct-21 05:29N 33°49' E 130°23'1111.5
2014-Oct-21 04:33N 33°39' E 130°18'4 4.3
2014-Oct-21 03:32N 33°36' E 130°23'0 0.0
2014-Oct-21 02:32N 33°36' E 130°23'0 0.0
2014-Oct-21 01:32N 33°36' E 130°23'0 0.0
2014-Oct-21 00:32N 33°36' E 130°23'1 0.6
2014-Oct-20 23:33N 33°37' E 130°23'2 1.6
2014-Oct-20 22:33N 33°37' E 130°21'0 0.0
2014-Oct-20 21:28N 33°37' E 130°21'0 0.0
2014-Oct-20 20:22N 33°37' E 130°21'0 0.0
2014-Oct-20 19:33N 33°37' E 130°21'0 0.0
2014-Oct-20 18:33N 33°37' E 130°21'0 0.0
2014-Oct-20 17:30N 33°37' E 130°21'0 0.0
2014-Oct-20 16:33N 33°37' E 130°21'6 6.4
2014-Oct-20 15:33N 33°42' E 130°16'5 0.1
2014-Oct-19 03:24N 33°46' E 130°20'910.2
2014-Oct-19 02:33N 33°37' E 130°21'2 1.6
2014-Oct-19 01:33N 33°36' E 130°23'0 0.0
2014-Oct-19 00:32N 33°36' E 130°23'0 0.0
2014-Oct-18 23:32N 33°36' E 130°23'0 0.2
2014-Oct-18 22:33N 33°36' E 130°23'2 0.8
2014-Oct-18 20:28N 33°37' E 130°21'0 0.1
2014-Oct-18 19:31N 33°37' E 130°21'0 0.0
2014-Oct-18 18:25N 33°37' E 130°21'0 0.0
2014-Oct-18 17:25N 33°37' E 130°21'0 0.0
2014-Oct-18 16:31N 33°37' E 130°21'0 0.0
2014-Oct-18 15:29N 33°37' E 130°21'0 0.0
2014-Oct-18 14:28N 33°37' E 130°21'0 0.0
2014-Oct-18 13:31N 33°37' E 130°21'0 0.0
2014-Oct-18 12:31N 33°37' E 130°21'0 0.0
2014-Oct-18 11:25N 33°37' E 130°21'0 0.0
2014-Oct-18 10:31N 33°37' E 130°21'0 0.0
2014-Oct-18 09:31N 33°37' E 130°21'0 0.0
2014-Oct-18 08:28N 33°37' E 130°21'0 0.1
2014-Oct-18 07:31N 33°37' E 130°21'8 8.4
2014-Oct-18 06:33N 33°45' E 130°19'23411.7
2014-Oct-17 10:33N 34°36' E 134°54'9 9.5
2014-Oct-17 09:33N 34°32' E 135°05'1413.6
2014-Oct-17 08:33N 34°19' E 134°60'1312.8
2014-Oct-17 07:33N 34°08' E 135°07'0 0.1
2014-Oct-17 03:26N 34°07' E 135°07'1 1.2
2014-Oct-17 02:33N 34°07' E 135°06'  
2014-Oct-14 06:12N 34°07' E 135°04'3 0.7
2014-Oct-14 02:07N 34°07' E 135°08'1 1.0
2014-Oct-14 01:34N 34°07' E 135°08'4 1.8
2014-Oct-13 23:33N 34°10' E 135°05'1913.1
2014-Oct-13 22:05N 34°29' E 135°02'611.9
2014-Oct-13 21:33N 34°35' E 135°03'234 5.7
2014-Oct-12 04:20N 33°52' E 130°26'1013.4
2014-Oct-12 03:33N 33°44' E 130°18'8 8.4
2014-Oct-12 02:33N 33°36' E 130°23'0 0.0
2014-Oct-12 01:31N 33°36' E 130°23'0 0.0
2014-Oct-12 00:31N 33°36' E 130°23'0 0.0
2014-Oct-11 23:34N 33°36' E 130°23'0 0.3
2014-Oct-11 22:33N 33°36' E 130°23'2 1.5
2014-Oct-11 21:32N 33°37' E 130°21'0 0.0
2014-Oct-11 20:34N 33°37' E 130°21'0 0.0
2014-Oct-11 19:30N 33°37' E 130°21'0 0.0
2014-Oct-11 18:31N 33°37' E 130°21'0 0.0
2014-Oct-11 17:33N 33°37' E 130°21'0 0.0
2014-Oct-11 16:33N 33°37' E 130°21'0 0.0
2014-Oct-11 15:33N 33°37' E 130°21'  

Dump ship's entire track history